sensor_id;sensor_type;location;lat;lon;timestamp;temperature;humidity
56729;DHT22;42612;52.232;7.560;2023-01-10T00:00:21;10.60;62.80
56729;DHT22;42612;52.232;7.560;2023-01-10T00:02:49;10.60;62.70
56729;DHT22;42612;52.232;7.560;2023-01-10T00:05:15;10.60;62.70
56729;DHT22;42612;52.232;7.560;2023-01-10T00:07:41;10.70;62.80
56729;DHT22;42612;52.232;7.560;2023-01-10T00:10:07;10.70;62.70
56729;DHT22;42612;52.232;7.560;2023-01-10T00:12:33;10.70;62.80
56729;DHT22;42612;52.232;7.560;2023-01-10T00:15:17;10.70;62.80
56729;DHT22;42612;52.232;7.560;2023-01-10T00:17:43;10.70;62.90
56729;DHT22;42612;52.232;7.560;2023-01-10T00:20:09;10.70;62.90
56729;DHT22;42612;52.232;7.560;2023-01-10T00:22:35;10.70;63.00
56729;DHT22;42612;52.232;7.560;2023-01-10T00:25:00;10.60;62.80
56729;DHT22;42612;52.232;7.560;2023-01-10T00:27:26;10.60;62.80
56729;DHT22;42612;52.232;7.560;2023-01-10T00:29:52;10.60;63.00
56729;DHT22;42612;52.232;7.560;2023-01-10T00:32:18;10.50;63.30
56729;DHT22;42612;52.232;7.560;2023-01-10T00:34:45;10.50;63.00
56729;DHT22;42612;52.232;7.560;2023-01-10T00:37:10;10.50;63.10
56729;DHT22;42612;52.232;7.560;2023-01-10T00:39:36;10.50;63.10
56729;DHT22;42612;52.232;7.560;2023-01-10T00:42:01;10.40;63.10
56729;DHT22;42612;52.232;7.560;2023-01-10T00:44:46;10.40;63.10
56729;DHT22;42612;52.232;7.560;2023-01-10T00:47:12;10.40;63.10
56729;DHT22;42612;52.232;7.560;2023-01-10T00:49:38;10.40;63.20
56729;DHT22;42612;52.232;7.560;2023-01-10T00:52:04;10.40;63.20
56729;DHT22;42612;52.232;7.560;2023-01-10T00:54:29;10.40;63.20
56729;DHT22;42612;52.232;7.560;2023-01-10T00:56:55;10.40;63.20
56729;DHT22;42612;52.232;7.560;2023-01-10T00:59:21;10.30;63.10
56729;DHT22;42612;52.232;7.560;2023-01-10T01:01:47;10.40;63.10
56729;DHT22;42612;52.232;7.560;2023-01-10T01:04:13;10.30;63.10
56729;DHT22;42612;52.232;7.560;2023-01-10T01:06:39;10.30;63.10
56729;DHT22;42612;52.232;7.560;2023-01-10T01:09:04;10.30;63.20
56729;DHT22;42612;52.232;7.560;2023-01-10T01:11:30;10.30;63.10
56729;DHT22;42612;52.232;7.560;2023-01-10T01:13:56;10.20;63.10
56729;DHT22;42612;52.232;7.560;2023-01-10T01:16:21;10.20;63.10
56729;DHT22;42612;52.232;7.560;2023-01-10T01:18:47;10.20;63.10
56729;DHT22;42612;52.232;7.560;2023-01-10T01:21:12;10.20;63.10
56729;DHT22;42612;52.232;7.560;2023-01-10T01:23:38;10.20;63.00
56729;DHT22;42612;52.232;7.560;2023-01-10T01:26:04;10.20;63.00
56729;DHT22;42612;52.232;7.560;2023-01-10T01:28:30;10.10;62.90
56729;DHT22;42612;52.232;7.560;2023-01-10T01:30:56;10.10;62.90
56729;DHT22;42612;52.232;7.560;2023-01-10T01:33:22;10.10;62.80
56729;DHT22;42612;52.232;7.560;2023-01-10T01:35:47;10.10;62.80
56729;DHT22;42612;52.232;7.560;2023-01-10T01:38:14;10.10;62.90
56729;DHT22;42612;52.232;7.560;2023-01-10T01:40:40;10.10;63.00
56729;DHT22;42612;52.232;7.560;2023-01-10T01:43:21;10.10;63.10
56729;DHT22;42612;52.232;7.560;2023-01-10T01:45:48;10.10;63.10
56729;DHT22;42612;52.232;7.560;2023-01-10T01:51:16;10.10;63.10
56729;DHT22;42612;52.232;7.560;2023-01-10T01:53:45;10.10;63.10
56729;DHT22;42612;52.232;7.560;2023-01-10T01:56:18;10.20;63.00
56729;DHT22;42612;52.232;7.560;2023-01-10T02:01:40;10.20;63.20
56729;DHT22;42612;52.232;7.560;2023-01-10T02:04:28;10.20;63.10
56729;DHT22;42612;52.232;7.560;2023-01-10T02:06:54;10.20;63.10
56729;DHT22;42612;52.232;7.560;2023-01-10T02:09:22;10.20;63.00
56729;DHT22;42612;52.232;7.560;2023-01-10T02:11:50;10.20;63.00
56729;DHT22;42612;52.232;7.560;2023-01-10T02:14:15;10.20;63.00
56729;DHT22;42612;52.232;7.560;2023-01-10T02:16:41;10.20;62.90
56729;DHT22;42612;52.232;7.560;2023-01-10T02:19:11;10.20;62.90
56729;DHT22;42612;52.232;7.560;2023-01-10T02:21:49;10.20;62.80
56729;DHT22;42612;52.232;7.560;2023-01-10T02:24:45;10.30;62.90
56729;DHT22;42612;52.232;7.560;2023-01-10T02:27:22;10.30;62.90
56729;DHT22;42612;52.232;7.560;2023-01-10T02:33:28;10.30;62.70
56729;DHT22;42612;52.232;7.560;2023-01-10T02:44:13;10.20;62.70
56729;DHT22;42612;52.232;7.560;2023-01-10T02:46:45;10.30;62.70
56729;DHT22;42612;52.232;7.560;2023-01-10T02:49:12;10.20;62.60
56729;DHT22;42612;52.232;7.560;2023-01-10T02:51:38;10.20;62.60
56729;DHT22;42612;52.232;7.560;2023-01-10T02:54:15;10.20;62.60
56729;DHT22;42612;52.232;7.560;2023-01-10T02:56:50;10.20;62.60
56729;DHT22;42612;52.232;7.560;2023-01-10T03:05:02;10.20;62.50
56729;DHT22;42612;52.232;7.560;2023-01-10T03:08:05;10.20;62.50
56729;DHT22;42612;52.232;7.560;2023-01-10T03:13:36;10.10;62.30
56729;DHT22;42612;52.232;7.560;2023-01-10T03:16:05;10.10;62.20
56729;DHT22;42612;52.232;7.560;2023-01-10T03:18:38;10.10;62.30
56729;DHT22;42612;52.232;7.560;2023-01-10T03:21:10;10.10;62.20
56729;DHT22;42612;52.232;7.560;2023-01-10T03:23:36;10.10;62.20
56729;DHT22;42612;52.232;7.560;2023-01-10T03:26:03;10.00;62.10
56729;DHT22;42612;52.232;7.560;2023-01-10T03:28:31;10.00;62.20
56729;DHT22;42612;52.232;7.560;2023-01-10T03:31:04;10.00;62.10
56729;DHT22;42612;52.232;7.560;2023-01-10T03:33:32;10.00;62.10
56729;DHT22;42612;52.232;7.560;2023-01-10T03:39:10;9.90;62.20
56729;DHT22;42612;52.232;7.560;2023-01-10T03:41:46;9.90;62.20
56729;DHT22;42612;52.232;7.560;2023-01-10T03:47:43;9.90;62.30
56729;DHT22;42612;52.232;7.560;2023-01-10T03:50:12;9.90;62.30
56729;DHT22;42612;52.232;7.560;2023-01-10T03:52:40;9.80;62.10
56729;DHT22;42612;52.232;7.560;2023-01-10T03:55:06;9.80;62.20
56729;DHT22;42612;52.232;7.560;2023-01-10T03:57:34;9.80;63.00
56729;DHT22;42612;52.232;7.560;2023-01-10T04:00:00;9.80;62.30
56729;DHT22;42612;52.232;7.560;2023-01-10T04:02:26;9.80;62.20
56729;DHT22;42612;52.232;7.560;2023-01-10T04:04:54;9.80;62.20
56729;DHT22;42612;52.232;7.560;2023-01-10T04:07:19;9.80;62.30
56729;DHT22;42612;52.232;7.560;2023-01-10T04:09:45;9.80;62.30
56729;DHT22;42612;52.232;7.560;2023-01-10T04:12:10;9.70;62.30
56729;DHT22;42612;52.232;7.560;2023-01-10T04:14:36;9.70;62.30
56729;DHT22;42612;52.232;7.560;2023-01-10T04:17:01;9.70;62.30
56729;DHT22;42612;52.232;7.560;2023-01-10T04:19:28;9.70;62.30
56729;DHT22;42612;52.232;7.560;2023-01-10T04:21:54;9.70;62.40
56729;DHT22;42612;52.232;7.560;2023-01-10T04:24:19;9.70;62.40
56729;DHT22;42612;52.232;7.560;2023-01-10T04:26:45;9.80;62.50
56729;DHT22;42612;52.232;7.560;2023-01-10T04:29:10;9.80;62.50
56729;DHT22;42612;52.232;7.560;2023-01-10T04:31:36;9.80;62.50
56729;DHT22;42612;52.232;7.560;2023-01-10T04:34:02;9.80;62.50
56729;DHT22;42612;52.232;7.560;2023-01-10T04:36:27;9.80;62.50
56729;DHT22;42612;52.232;7.560;2023-01-10T04:38:53;9.80;62.50
56729;DHT22;42612;52.232;7.560;2023-01-10T04:41:19;9.80;62.60
56729;DHT22;42612;52.232;7.560;2023-01-10T04:43:44;9.80;62.60
56729;DHT22;42612;52.232;7.560;2023-01-10T04:46:10;9.80;62.60
56729;DHT22;42612;52.232;7.560;2023-01-10T04:48:35;9.80;62.60
56729;DHT22;42612;52.232;7.560;2023-01-10T04:51:02;9.80;62.60
56729;DHT22;42612;52.232;7.560;2023-01-10T04:53:28;9.80;62.70
56729;DHT22;42612;52.232;7.560;2023-01-10T04:55:53;9.80;62.70
56729;DHT22;42612;52.232;7.560;2023-01-10T04:58:19;9.90;62.90
56729;DHT22;42612;52.232;7.560;2023-01-10T05:00:44;9.90;62.70
56729;DHT22;42612;52.232;7.560;2023-01-10T05:03:10;9.90;62.80
56729;DHT22;42612;52.232;7.560;2023-01-10T05:05:36;9.80;62.60
56729;DHT22;42612;52.232;7.560;2023-01-10T05:08:01;9.90;62.70
56729;DHT22;42612;52.232;7.560;2023-01-10T05:10:27;9.80;62.70
56729;DHT22;42612;52.232;7.560;2023-01-10T05:12:52;9.90;62.80
56729;DHT22;42612;52.232;7.560;2023-01-10T05:15:18;9.80;62.70
56729;DHT22;42612;52.232;7.560;2023-01-10T05:17:45;9.90;62.80
56729;DHT22;42612;52.232;7.560;2023-01-10T05:20:11;9.90;62.80
56729;DHT22;42612;52.232;7.560;2023-01-10T05:22:37;9.80;62.90
56729;DHT22;42612;52.232;7.560;2023-01-10T05:25:04;9.80;63.00
56729;DHT22;42612;52.232;7.560;2023-01-10T05:27:30;9.90;63.00
56729;DHT22;42612;52.232;7.560;2023-01-10T05:29:55;9.90;62.90
56729;DHT22;42612;52.232;7.560;2023-01-10T05:32:21;9.90;63.00
56729;DHT22;42612;52.232;7.560;2023-01-10T05:34:47;9.90;63.00
56729;DHT22;42612;52.232;7.560;2023-01-10T05:37:13;9.90;62.90
56729;DHT22;42612;52.232;7.560;2023-01-10T05:39:39;9.90;63.00
56729;DHT22;42612;52.232;7.560;2023-01-10T05:42:05;9.90;62.90
56729;DHT22;42612;52.232;7.560;2023-01-10T05:44:31;9.90;62.80
56729;DHT22;42612;52.232;7.560;2023-01-10T05:46:56;9.90;62.80
56729;DHT22;42612;52.232;7.560;2023-01-10T05:49:22;9.90;62.80
56729;DHT22;42612;52.232;7.560;2023-01-10T05:51:47;9.90;62.80
56729;DHT22;42612;52.232;7.560;2023-01-10T05:54:13;9.90;62.90
56729;DHT22;42612;52.232;7.560;2023-01-10T05:56:39;9.90;62.90
56729;DHT22;42612;52.232;7.560;2023-01-10T05:59:04;9.80;62.90
56729;DHT22;42612;52.232;7.560;2023-01-10T06:01:30;9.80;63.00
56729;DHT22;42612;52.232;7.560;2023-01-10T06:03:55;9.80;63.00
56729;DHT22;42612;52.232;7.560;2023-01-10T06:06:21;9.80;63.00
56729;DHT22;42612;52.232;7.560;2023-01-10T06:08:47;9.80;63.00
56729;DHT22;42612;52.232;7.560;2023-01-10T06:11:12;9.80;63.00
56729;DHT22;42612;52.232;7.560;2023-01-10T06:13:38;9.80;63.10
56729;DHT22;42612;52.232;7.560;2023-01-10T06:16:03;9.80;63.00
56729;DHT22;42612;52.232;7.560;2023-01-10T06:18:29;9.80;63.00
56729;DHT22;42612;52.232;7.560;2023-01-10T06:20:55;9.80;63.10
56729;DHT22;42612;52.232;7.560;2023-01-10T06:23:20;9.80;63.00
56729;DHT22;42612;52.232;7.560;2023-01-10T06:25:46;9.80;63.10
56729;DHT22;42612;52.232;7.560;2023-01-10T06:28:12;9.80;63.00
56729;DHT22;42612;52.232;7.560;2023-01-10T06:30:39;9.80;63.10
56729;DHT22;42612;52.232;7.560;2023-01-10T06:33:06;9.80;63.20
56729;DHT22;42612;52.232;7.560;2023-01-10T06:35:33;9.80;63.10
56729;DHT22;42612;52.232;7.560;2023-01-10T06:37:59;9.80;63.10
56729;DHT22;42612;52.232;7.560;2023-01-10T06:40:25;9.80;63.10
56729;DHT22;42612;52.232;7.560;2023-01-10T06:42:51;9.80;63.10
56729;DHT22;42612;52.232;7.560;2023-01-10T06:45:16;9.80;63.10
56729;DHT22;42612;52.232;7.560;2023-01-10T06:47:42;9.80;63.00
56729;DHT22;42612;52.232;7.560;2023-01-10T06:50:08;9.90;63.00
56729;DHT22;42612;52.232;7.560;2023-01-10T06:52:34;9.90;63.00
56729;DHT22;42612;52.232;7.560;2023-01-10T06:55:00;9.80;63.00
56729;DHT22;42612;52.232;7.560;2023-01-10T06:57:26;9.90;63.00
56729;DHT22;42612;52.232;7.560;2023-01-10T06:59:53;9.80;62.90
56729;DHT22;42612;52.232;7.560;2023-01-10T07:02:19;9.80;63.00
56729;DHT22;42612;52.232;7.560;2023-01-10T07:04:44;9.80;63.30
56729;DHT22;42612;52.232;7.560;2023-01-10T07:07:10;9.80;63.30
56729;DHT22;42612;52.232;7.560;2023-01-10T07:09:35;9.80;63.20
56729;DHT22;42612;52.232;7.560;2023-01-10T07:12:01;9.90;63.30
56729;DHT22;42612;52.232;7.560;2023-01-10T07:14:27;9.80;63.20
56729;DHT22;42612;52.232;7.560;2023-01-10T07:16:52;9.90;63.30
56729;DHT22;42612;52.232;7.560;2023-01-10T07:19:18;9.90;63.30
56729;DHT22;42612;52.232;7.560;2023-01-10T07:21:44;9.90;63.30
56729;DHT22;42612;52.232;7.560;2023-01-10T07:24:10;9.90;63.20
56729;DHT22;42612;52.232;7.560;2023-01-10T07:26:35;10.00;63.30
56729;DHT22;42612;52.232;7.560;2023-01-10T07:29:01;9.90;63.20
56729;DHT22;42612;52.232;7.560;2023-01-10T07:31:27;10.00;63.20
56729;DHT22;42612;52.232;7.560;2023-01-10T07:33:52;9.90;63.10
56729;DHT22;42612;52.232;7.560;2023-01-10T07:36:18;9.90;63.10
56729;DHT22;42612;52.232;7.560;2023-01-10T07:38:44;10.00;63.20
56729;DHT22;42612;52.232;7.560;2023-01-10T07:41:09;10.00;63.20
56729;DHT22;42612;52.232;7.560;2023-01-10T07:43:35;9.90;63.20
56729;DHT22;42612;52.232;7.560;2023-01-10T07:46:01;10.00;63.20
56729;DHT22;42612;52.232;7.560;2023-01-10T07:48:28;10.00;63.30
56729;DHT22;42612;52.232;7.560;2023-01-10T07:50:57;9.90;63.30
56729;DHT22;42612;52.232;7.560;2023-01-10T07:53:24;10.00;63.30
56729;DHT22;42612;52.232;7.560;2023-01-10T07:55:50;9.90;63.20
56729;DHT22;42612;52.232;7.560;2023-01-10T07:58:16;9.90;63.20
56729;DHT22;42612;52.232;7.560;2023-01-10T08:00:42;9.90;63.20
56729;DHT22;42612;52.232;7.560;2023-01-10T08:03:09;9.90;63.40
56729;DHT22;42612;52.232;7.560;2023-01-10T08:05:35;9.90;63.10
56729;DHT22;42612;52.232;7.560;2023-01-10T08:08:04;9.90;63.20
56729;DHT22;42612;52.232;7.560;2023-01-10T08:10:31;9.90;63.20
56729;DHT22;42612;52.232;7.560;2023-01-10T08:12:57;9.90;63.30
56729;DHT22;42612;52.232;7.560;2023-01-10T08:15:23;9.90;63.30
56729;DHT22;42612;52.232;7.560;2023-01-10T08:17:48;9.80;63.30
56729;DHT22;42612;52.232;7.560;2023-01-10T08:20:14;9.80;63.30
56729;DHT22;42612;52.232;7.560;2023-01-10T08:22:40;9.80;63.40
56729;DHT22;42612;52.232;7.560;2023-01-10T08:25:05;9.80;63.30
56729;DHT22;42612;52.232;7.560;2023-01-10T08:27:31;9.80;64.00
56729;DHT22;42612;52.232;7.560;2023-01-10T08:29:57;9.80;63.30
56729;DHT22;42612;52.232;7.560;2023-01-10T08:32:22;9.80;63.30
56729;DHT22;42612;52.232;7.560;2023-01-10T08:34:48;9.80;63.30
56729;DHT22;42612;52.232;7.560;2023-01-10T08:37:14;9.80;63.20
56729;DHT22;42612;52.232;7.560;2023-01-10T08:39:39;9.80;63.20
56729;DHT22;42612;52.232;7.560;2023-01-10T08:42:05;9.80;63.20
56729;DHT22;42612;52.232;7.560;2023-01-10T08:44:30;9.80;63.20
56729;DHT22;42612;52.232;7.560;2023-01-10T08:46:56;9.80;63.30
56729;DHT22;42612;52.232;7.560;2023-01-10T08:49:22;9.80;63.20
56729;DHT22;42612;52.232;7.560;2023-01-10T08:51:47;9.80;63.20
56729;DHT22;42612;52.232;7.560;2023-01-10T08:54:13;9.80;63.20
56729;DHT22;42612;52.232;7.560;2023-01-10T08:56:39;9.70;63.30
56729;DHT22;42612;52.232;7.560;2023-01-10T08:59:05;9.80;63.30
56729;DHT22;42612;52.232;7.560;2023-01-10T09:01:31;9.80;63.20
56729;DHT22;42612;52.232;7.560;2023-01-10T09:03:57;9.80;63.20
56729;DHT22;42612;52.232;7.560;2023-01-10T09:06:22;9.80;63.20
56729;DHT22;42612;52.232;7.560;2023-01-10T09:08:48;9.80;63.30
56729;DHT22;42612;52.232;7.560;2023-01-10T09:11:14;9.80;63.30
56729;DHT22;42612;52.232;7.560;2023-01-10T09:13:40;9.80;63.40
56729;DHT22;42612;52.232;7.560;2023-01-10T09:16:06;9.70;63.40
56729;DHT22;42612;52.232;7.560;2023-01-10T09:18:33;9.70;63.40
56729;DHT22;42612;52.232;7.560;2023-01-10T09:20:58;9.70;63.40
56729;DHT22;42612;52.232;7.560;2023-01-10T09:23:24;9.80;63.40
56729;DHT22;42612;52.232;7.560;2023-01-10T09:25:51;9.80;63.40
56729;DHT22;42612;52.232;7.560;2023-01-10T09:28:18;9.80;63.30
56729;DHT22;42612;52.232;7.560;2023-01-10T09:30:45;9.80;63.50
56729;DHT22;42612;52.232;7.560;2023-01-10T09:33:11;9.80;63.40
56729;DHT22;42612;52.232;7.560;2023-01-10T09:35:38;9.70;63.40
56729;DHT22;42612;52.232;7.560;2023-01-10T09:38:05;9.70;64.00
56729;DHT22;42612;52.232;7.560;2023-01-10T09:40:53;9.80;63.40
56729;DHT22;42612;52.232;7.560;2023-01-10T09:46:38;9.80;63.60
56729;DHT22;42612;52.232;7.560;2023-01-10T09:49:14;9.80;63.50
56729;DHT22;42612;52.232;7.560;2023-01-10T09:51:55;9.80;63.50
56729;DHT22;42612;52.232;7.560;2023-01-10T09:54:24;9.80;63.40
56729;DHT22;42612;52.232;7.560;2023-01-10T09:56:52;9.80;63.50
56729;DHT22;42612;52.232;7.560;2023-01-10T09:59:20;9.80;63.60
56729;DHT22;42612;52.232;7.560;2023-01-10T10:01:49;9.90;63.60
56729;DHT22;42612;52.232;7.560;2023-01-10T10:06:59;9.90;63.50
56729;DHT22;42612;52.232;7.560;2023-01-10T10:09:27;9.90;63.70
56729;DHT22;42612;52.232;7.560;2023-01-10T10:12:40;9.90;63.60
56729;DHT22;42612;52.232;7.560;2023-01-10T10:15:01;10.00;64.30
56729;DHT22;42612;52.232;7.560;2023-01-10T10:17:31;10.00;63.50
56729;DHT22;42612;52.232;7.560;2023-01-10T10:25:49;10.00;63.40
56729;DHT22;42612;52.232;7.560;2023-01-10T10:34:22;10.00;63.50
56729;DHT22;42612;52.232;7.560;2023-01-10T10:36:53;10.00;63.60
56729;DHT22;42612;52.232;7.560;2023-01-10T10:39:24;10.00;63.50
56729;DHT22;42612;52.232;7.560;2023-01-10T10:42:04;10.00;63.50
56729;DHT22;42612;52.232;7.560;2023-01-10T10:44:38;10.10;63.50
56729;DHT22;42612;52.232;7.560;2023-01-10T10:47:25;10.00;63.60
56729;DHT22;42612;52.232;7.560;2023-01-10T10:52:38;10.10;63.60
56729;DHT22;42612;52.232;7.560;2023-01-10T10:55:05;10.10;63.50
56729;DHT22;42612;52.232;7.560;2023-01-10T10:57:36;10.20;63.50
56729;DHT22;42612;52.232;7.560;2023-01-10T11:00:03;10.20;63.60
56729;DHT22;42612;52.232;7.560;2023-01-10T11:02:31;10.30;63.60
56729;DHT22;42612;52.232;7.560;2023-01-10T11:05:01;10.30;63.50
56729;DHT22;42612;52.232;7.560;2023-01-10T11:07:28;10.30;63.50
56729;DHT22;42612;52.232;7.560;2023-01-10T11:09:58;10.40;63.50
56729;DHT22;42612;52.232;7.560;2023-01-10T11:12:44;10.40;63.40
56729;DHT22;42612;52.232;7.560;2023-01-10T11:15:33;10.50;63.50
56729;DHT22;42612;52.232;7.560;2023-01-10T11:18:15;10.50;63.40
56729;DHT22;42612;52.232;7.560;2023-01-10T11:20:52;10.50;63.40
56729;DHT22;42612;52.232;7.560;2023-01-10T11:26:29;10.60;62.90
56729;DHT22;42612;52.232;7.560;2023-01-10T11:29:13;10.60;63.00
56729;DHT22;42612;52.232;7.560;2023-01-10T11:31:45;10.60;63.00
56729;DHT22;42612;52.232;7.560;2023-01-10T11:34:33;10.60;62.90
56729;DHT22;42612;52.232;7.560;2023-01-10T11:39:42;10.70;62.80
56729;DHT22;42612;52.232;7.560;2023-01-10T11:44:49;10.70;63.40
56729;DHT22;42612;52.232;7.560;2023-01-10T11:47:15;10.70;63.00
56729;DHT22;42612;52.232;7.560;2023-01-10T11:49:45;10.70;61.90
56729;DHT22;42612;52.232;7.560;2023-01-10T11:52:17;10.70;62.40
56729;DHT22;42612;52.232;7.560;2023-01-10T11:54:46;10.80;62.60
56729;DHT22;42612;52.232;7.560;2023-01-10T11:57:16;10.70;62.70
56729;DHT22;42612;52.232;7.560;2023-01-10T11:59:57;10.80;62.60
56729;DHT22;42612;52.232;7.560;2023-01-10T12:02:29;10.80;62.60
56729;DHT22;42612;52.232;7.560;2023-01-10T12:04:58;10.80;62.50
56729;DHT22;42612;52.232;7.560;2023-01-10T12:07:27;10.80;62.50
56729;DHT22;42612;52.232;7.560;2023-01-10T12:09:54;10.80;62.60
56729;DHT22;42612;52.232;7.560;2023-01-10T12:12:22;10.80;62.60
56729;DHT22;42612;52.232;7.560;2023-01-10T12:14:51;10.80;62.60
56729;DHT22;42612;52.232;7.560;2023-01-10T12:19:45;10.80;62.60
56729;DHT22;42612;52.232;7.560;2023-01-10T12:22:11;10.80;62.50
56729;DHT22;42612;52.232;7.560;2023-01-10T12:24:39;10.80;62.60
56729;DHT22;42612;52.232;7.560;2023-01-10T12:27:06;10.90;62.30
56729;DHT22;42612;52.232;7.560;2023-01-10T12:29:36;10.90;61.90
56729;DHT22;42612;52.232;7.560;2023-01-10T12:32:05;10.90;62.20
56729;DHT22;42612;52.232;7.560;2023-01-10T12:34:40;10.90;62.20
56729;DHT22;42612;52.232;7.560;2023-01-10T12:37:15;10.90;61.90
56729;DHT22;42612;52.232;7.560;2023-01-10T12:40:00;10.80;61.80
56729;DHT22;42612;52.232;7.560;2023-01-10T12:42:54;10.90;62.10
56729;DHT22;42612;52.232;7.560;2023-01-10T12:45:49;10.90;62.00
56729;DHT22;42612;52.232;7.560;2023-01-10T12:48:23;10.90;62.10
56729;DHT22;42612;52.232;7.560;2023-01-10T12:51:01;10.90;62.10
56729;DHT22;42612;52.232;7.560;2023-01-10T12:53:31;10.90;62.00
56729;DHT22;42612;52.232;7.560;2023-01-10T12:56:00;10.90;62.00
56729;DHT22;42612;52.232;7.560;2023-01-10T12:58:46;10.90;62.00
56729;DHT22;42612;52.232;7.560;2023-01-10T13:01:14;10.80;61.90
56729;DHT22;42612;52.232;7.560;2023-01-10T13:03:41;10.80;61.80
56729;DHT22;42612;52.232;7.560;2023-01-10T13:06:11;10.80;61.60
56729;DHT22;42612;52.232;7.560;2023-01-10T13:08:45;10.80;61.70
56729;DHT22;42612;52.232;7.560;2023-01-10T13:11:11;10.80;61.80
56729;DHT22;42612;52.232;7.560;2023-01-10T13:13:41;10.80;61.40
56729;DHT22;42612;52.232;7.560;2023-01-10T13:21:42;10.80;61.40
56729;DHT22;42612;52.232;7.560;2023-01-10T13:26:47;10.80;61.50
56729;DHT22;42612;52.232;7.560;2023-01-10T13:29:18;10.70;61.40
56729;DHT22;42612;52.232;7.560;2023-01-10T13:31:48;10.70;62.20
56729;DHT22;42612;52.232;7.560;2023-01-10T13:34:15;10.70;61.50
56729;DHT22;42612;52.232;7.560;2023-01-10T13:36:49;10.70;61.40
56729;DHT22;42612;52.232;7.560;2023-01-10T13:39:28;10.70;61.20
56729;DHT22;42612;52.232;7.560;2023-01-10T14:08:37;10.70;61.40
56729;DHT22;42612;52.232;7.560;2023-01-10T14:11:07;10.70;61.50
56729;DHT22;42612;52.232;7.560;2023-01-10T14:13:34;10.70;61.10
56729;DHT22;42612;52.232;7.560;2023-01-10T14:16:00;10.70;61.30
56729;DHT22;42612;52.232;7.560;2023-01-10T14:18:33;10.70;61.40
56729;DHT22;42612;52.232;7.560;2023-01-10T14:21:03;10.70;61.60
56729;DHT22;42612;52.232;7.560;2023-01-10T14:23:47;10.70;61.50
56729;DHT22;42612;52.232;7.560;2023-01-10T14:29:00;10.70;61.40
56729;DHT22;42612;52.232;7.560;2023-01-10T14:31:26;10.70;61.60
56729;DHT22;42612;52.232;7.560;2023-01-10T14:33:52;10.70;61.60
56729;DHT22;42612;52.232;7.560;2023-01-10T14:36:26;10.70;61.80
56729;DHT22;42612;52.232;7.560;2023-01-10T14:38:57;10.70;61.50
56729;DHT22;42612;52.232;7.560;2023-01-10T14:44:10;10.70;61.30
56729;DHT22;42612;52.232;7.560;2023-01-10T14:46:47;10.70;61.50
56729;DHT22;42612;52.232;7.560;2023-01-10T14:54:41;10.80;61.40
56729;DHT22;42612;52.232;7.560;2023-01-10T14:57:17;10.80;61.20
56729;DHT22;42612;52.232;7.560;2023-01-10T14:59:44;10.80;61.20
56729;DHT22;42612;52.232;7.560;2023-01-10T15:02:18;10.80;61.00
56729;DHT22;42612;52.232;7.560;2023-01-10T15:04:53;10.80;61.20
56729;DHT22;42612;52.232;7.560;2023-01-10T15:07:20;10.80;61.30
56729;DHT22;42612;52.232;7.560;2023-01-10T15:09:48;10.80;61.10
56729;DHT22;42612;52.232;7.560;2023-01-10T15:12:15;10.80;61.00
56729;DHT22;42612;52.232;7.560;2023-01-10T15:14:42;10.80;61.00
56729;DHT22;42612;52.232;7.560;2023-01-10T15:17:10;10.80;60.70
56729;DHT22;42612;52.232;7.560;2023-01-10T15:19:41;10.80;60.70
56729;DHT22;42612;52.232;7.560;2023-01-10T15:22:23;10.80;60.50
56729;DHT22;42612;52.232;7.560;2023-01-10T15:24:56;10.90;60.70
56729;DHT22;42612;52.232;7.560;2023-01-10T15:27:29;10.80;60.70
56729;DHT22;42612;52.232;7.560;2023-01-10T15:29:55;10.80;60.60
56729;DHT22;42612;52.232;7.560;2023-01-10T15:32:23;10.90;60.40
56729;DHT22;42612;52.232;7.560;2023-01-10T15:34:52;10.90;60.30
56729;DHT22;42612;52.232;7.560;2023-01-10T15:37:26;10.80;60.30
56729;DHT22;42612;52.232;7.560;2023-01-10T15:40:03;10.90;60.40
56729;DHT22;42612;52.232;7.560;2023-01-10T15:42:30;10.90;60.40
56729;DHT22;42612;52.232;7.560;2023-01-10T15:44:56;10.90;60.40
56729;DHT22;42612;52.232;7.560;2023-01-10T15:47:35;10.90;60.60
56729;DHT22;42612;52.232;7.560;2023-01-10T15:50:17;10.90;60.40
56729;DHT22;42612;52.232;7.560;2023-01-10T15:52:47;10.90;60.20
56729;DHT22;42612;52.232;7.560;2023-01-10T16:00:49;10.90;58.70
56729;DHT22;42612;52.232;7.560;2023-01-10T16:03:38;11.00;59.50
56729;DHT22;42612;52.232;7.560;2023-01-10T16:06:02;10.90;59.30
56729;DHT22;42612;52.232;7.560;2023-01-10T16:08:34;10.90;59.70
56729;DHT22;42612;52.232;7.560;2023-01-10T16:11:02;10.90;59.20
56729;DHT22;42612;52.232;7.560;2023-01-10T16:13:32;10.90;58.90
56729;DHT22;42612;52.232;7.560;2023-01-10T16:16:00;10.90;58.80
56729;DHT22;42612;52.232;7.560;2023-01-10T16:18:29;10.90;58.80
56729;DHT22;42612;52.232;7.560;2023-01-10T16:20:55;10.90;58.40
56729;DHT22;42612;52.232;7.560;2023-01-10T16:23:26;10.90;58.60
56729;DHT22;42612;52.232;7.560;2023-01-10T16:25:55;10.90;59.00
56729;DHT22;42612;52.232;7.560;2023-01-10T16:28:22;10.90;58.90
56729;DHT22;42612;52.232;7.560;2023-01-10T16:30:48;10.90;58.60
56729;DHT22;42612;52.232;7.560;2023-01-10T16:33:15;10.90;58.10
56729;DHT22;42612;52.232;7.560;2023-01-10T16:35:45;10.90;58.70
56729;DHT22;42612;52.232;7.560;2023-01-10T16:38:11;10.90;57.90
56729;DHT22;42612;52.232;7.560;2023-01-10T16:40:48;10.90;57.70
56729;DHT22;42612;52.232;7.560;2023-01-10T16:43:15;10.90;57.90
56729;DHT22;42612;52.232;7.560;2023-01-10T16:45:51;10.90;58.40
56729;DHT22;42612;52.232;7.560;2023-01-10T16:48:28;10.90;57.80
56729;DHT22;42612;52.232;7.560;2023-01-10T16:51:03;10.90;58.50
56729;DHT22;42612;52.232;7.560;2023-01-10T16:53:42;10.90;58.70
56729;DHT22;42612;52.232;7.560;2023-01-10T16:56:10;10.90;58.50
56729;DHT22;42612;52.232;7.560;2023-01-10T16:58:38;10.90;58.20
56729;DHT22;42612;52.232;7.560;2023-01-10T17:01:03;10.90;58.30
56729;DHT22;42612;52.232;7.560;2023-01-10T17:03:30;10.90;58.20
56729;DHT22;42612;52.232;7.560;2023-01-10T17:05:59;10.90;58.30
56729;DHT22;42612;52.232;7.560;2023-01-10T17:08:24;10.90;57.90
56729;DHT22;42612;52.232;7.560;2023-01-10T17:10:54;10.80;58.30
56729;DHT22;42612;52.232;7.560;2023-01-10T17:13:28;10.80;57.80
56729;DHT22;42612;52.232;7.560;2023-01-10T17:15:56;10.90;57.90
56729;DHT22;42612;52.232;7.560;2023-01-10T17:18:23;10.80;58.00
56729;DHT22;42612;52.232;7.560;2023-01-10T17:20:50;10.80;58.00
56729;DHT22;42612;52.232;7.560;2023-01-10T17:23:16;10.80;57.70
56729;DHT22;42612;52.232;7.560;2023-01-10T17:25:42;10.80;57.70
56729;DHT22;42612;52.232;7.560;2023-01-10T17:28:08;10.80;57.60
56729;DHT22;42612;52.232;7.560;2023-01-10T17:30:35;10.70;57.80
56729;DHT22;42612;52.232;7.560;2023-01-10T17:33:01;10.70;58.00
56729;DHT22;42612;52.232;7.560;2023-01-10T17:35:26;10.70;58.50
56729;DHT22;42612;52.232;7.560;2023-01-10T17:37:53;10.70;58.10
56729;DHT22;42612;52.232;7.560;2023-01-10T17:40:19;10.70;58.20
56729;DHT22;42612;52.232;7.560;2023-01-10T17:42:44;10.70;58.80